• Join FlightAware (Why Join?)
  • Login
  • US Flag 
09:53PM EDT


 

Airport Tracker/Info


-or-


 

Live Flight TrackerFlight Track Log ✈ TMC452 ✈ 13-Jul-2013 ✈ KISP - KSRQ

Flight Track Log - Related Links

Times and Time Zones

All times are in EDT time to prevent confusion due to time zone crossing. See the TMC452 flight status page for this flight to view local times or setup timezone preferences in your user account.

Time Position Orientation Groundspeed Altitude Reporting Facility
EDT Latitude Longitude Course Direction KTS MPH feet Rate Location/Type
10:55AM 40.8167 -73.0833 72° East 180 207 1,400  Level New York TRACON
10:56AM 40.8333 -73.0167 72° East 217 250 3,800 2,880 Climbing New York TRACON
10:57AM 40.8667 -72.9333 62° Northeast 244 281 6,900 1,680 Climbing New York TRACON
10:59AM 40.8975 -72.7586 77° East 253 291 9,000 960 Climbing Boston Center
11:00AM 40.8975 -72.6681 90° East 253 291 10,000 480 Climbing Boston Center
11:01AM 40.8622 -72.5964 123° Southeast 218 251 10,000 840 Level Boston Center
11:02AM 40.8061 -72.5772 166° South 213 245 11,700 1,920 Climbing Boston Center
11:03AM 40.7372 -72.5469 162° South 223 257 13,900 2,100 Climbing Boston Center
11:04AM 40.6811 -72.6014 216° Southwest 213 245 15,900 1,740 Climbing Boston Center
11:05AM 40.6267 -72.6725 225° Southwest 244 281 17,400 1,320 Climbing Boston Center
11:06AM 40.5661 -72.7433 222° Southwest 269 310 18,600 1,140 Climbing Boston Center
11:07AM 40.5158 -72.8442 237° Southwest 299 344 19,700 1,020 Climbing Boston Center
11:08AM 40.4922 -72.9639 255° West 310 357 20,700 1,020 Climbing Boston Center
11:09AM 40.4689 -73.0867 256° West 334 384 21,800 1,080 Climbing Boston Center
11:10AM 40.4472 -73.2144 257° West 354 407 22,900 1,140 Climbing Boston Center
11:11AM 40.4192 -73.3394 254° West 354 407 24,100 1,080 Climbing Boston Center
11:12AM 40.3547 -73.5136 244° Southwest 358 412 25,800 1,020 Climbing New York Center
11:13AM 40.3308 -73.6406 256° West 358 412 26,800 900 Climbing New York Center
11:14AM 40.3131 -73.7733 260° West 358 412 27,700 900 Climbing New York Center
11:15AM 40.2906 -73.9139 258° West 363 418 28,700 900 Climbing New York Center
11:16AM 40.2703 -74.0461 259° West 370 426 29,600 840 Climbing New York Center
11:17AM 40.2497 -74.1867 259° West 383 441 30,400 720 Climbing New York Center
11:18AM 40.2289 -74.3214 259° West 383 441 31,100 600 Climbing New York Center
11:19AM 40.2081 -74.4589 259° West 394 453 31,700 600 Climbing New York Center
11:20AM 40.1931 -74.6050 262° West 400 460 32,400 540 Climbing New York Center
11:21AM 40.1819 -74.7456 264° West 400 460 32,900 480 Climbing New York Center
11:22AM 40.1750 -74.8892 266° West 408 470 33,400 480 Climbing New York Center
11:23AM 40.1633 -75.0406 264° West 408 470 33,900 540 Climbing New York Center
11:24AM 40.1517 -75.1867 264° West 408 470 34,500 540 Climbing New York Center
11:25AM 40.1383 -75.3186 263° West 416 479 35,000 540 Climbing New York Center
11:26AM 40.0917 -75.4486 265° West 416 479 35,600 540 Climbing New York Center
11:27AM 40.1089 -75.4741 265° West  Level FlightAware Approximate
11:27AM 40.0264 -75.5689 235° Southwest 400 460 36,100  Level New York Center
11:28AM 39.9633 -75.6839 234° Southwest 400 460 36,700 540 Climbing New York Center
11:29AM 39.8981 -75.7983 233° Southwest 400 460 37,200 540 Climbing New York Center
11:30AM 39.8306 -75.9125 232° Southwest 400 460 37,800 540 Climbing New York Center
11:31AM 39.7694 -76.0214 234° Southwest 395 455 38,300 540 Climbing New York Center
11:32AM 39.7039 -76.1353 233° Southwest 390 449 38,900 420 Climbing New York Center
11:33AM 39.6294 -76.2564 231° Southwest 395 455 39,200 180 Climbing New York Center
11:35AM 39.5569 -76.3828 233° Southwest 400 460 39,400 120 Climbing Washington Center
11:36AM 39.4894 -76.4978 233° Southwest 400 460 39,600 180 Climbing Washington Center
11:37AM 39.4217 -76.6097 232° Southwest 400 460 39,800 180 Climbing Washington Center
11:38AM 39.3542 -76.7242 233° Southwest 405 466 40,000 60 Climbing Washington Center
11:39AM 39.2800 -76.8517 233° Southwest 405 466 40,000  Level Washington Center
11:40AM 39.2183 -76.9578 233° Southwest 405 466 40,000  Level Washington Center
11:41AM 39.1481 -77.0717 232° Southwest 405 466 40,000  Level Washington Center
11:42AM 39.0800 -77.1878 233° Southwest 405 466 40,000  Level Washington Center
11:43AM 39.0053 -77.3119 232° Southwest 405 466 40,000  Level Washington Center
11:44AM 38.9369 -77.4222 231° Southwest 405 466 40,000  Level Washington Center
11:45AM 38.8664 -77.5378 232° Southwest 418 481 40,000  Level Washington Center
11:46AM 38.7914 -77.6531 230° Southwest 427 491 40,000  Level Washington Center
11:47AM 38.7228 -77.7708 233° Southwest 428 493 40,000  Level Washington Center
11:48AM 38.6581 -77.8861 234° Southwest 422 486 40,000  Level Washington Center
11:49AM 38.5892 -77.9981 232° Southwest 417 480 40,000  Level Washington Center
11:50AM 38.5222 -78.1100 233° Southwest 411 473 40,000 60 Level Washington Center
11:51AM 38.4508 -78.2269 232° Southwest 411 473 40,200 300 Climbing Washington Center
11:52AM 38.3817 -78.3383 232° Southwest 411 473 40,600 300 Climbing Washington Center
11:53AM 38.3122 -78.4497 232° Southwest 411 473 40,900 300 Climbing Washington Center
11:54AM 38.2492 -78.5608 234° Southwest 400 460 41,300 360 Climbing Washington Center
11:55AM 38.1839 -78.6639 231° Southwest 400 460 41,700 240 Climbing Washington Center
11:56AM 38.1186 -78.7722 233° Southwest 400 460 41,900 120 Climbing Washington Center
11:57AM 38.0489 -78.8800 231° Southwest 400 460 42,000 60 Climbing Washington Center
11:58AM 37.9878 -78.9775 232° Southwest 400 460 42,100 60 Climbing Washington Center
11:59AM 37.9200 -79.0850 231° Southwest 400 460 42,200 60 Climbing Washington Center
12:00PM 37.8483 -79.1869 228° Southwest 400 460 42,300 120 Climbing Washington Center
12:01PM 37.7742 -79.2883 227° Southwest 400 460 42,500 180 Climbing Washington Center
12:02PM 37.6936 -79.4000 228° Southwest 402 463 42,700 120 Climbing Washington Center
12:03PM 37.6281 -79.4911 228° Southwest 402 463 42,800 120 Climbing Washington Center
12:04PM 37.5472 -79.6022 227° Southwest 395 455 43,000 60 Climbing Washington Center
12:05PM 37.4839 -79.6903 228° Southwest 390 449 43,000  Level Washington Center
12:06PM 37.4006 -79.8011 227° Southwest 396 456 43,000  Level Washington Center
12:07PM 37.3283 -79.8989 227° Southwest 396 456 43,000  Level Washington Center
12:09PM 37.1714 -80.1058 226° Southwest 392 451 43,000  Level Atlanta Center
12:10PM 37.0994 -80.2031 227° Southwest 387 445 43,000  Level Atlanta Center
12:11PM 37.0272 -80.3003 227° Southwest 387 445 43,000  Level Atlanta Center
12:12PM 36.9339 -80.3853 216° Southwest 381 438 43,000  Level Atlanta Center
12:13PM 36.8464 -80.4567 213° Southwest 376 433 43,000  Level Atlanta Center
12:14PM 36.7650 -80.5278 215° Southwest 376 433 43,000  Level Atlanta Center
12:15PM 36.6917 -80.5878 213° Southwest 370 426 43,000  Level Atlanta Center
12:16PM 36.6061 -80.6561 213° Southwest 365 420 43,000  Level Atlanta Center
12:17PM 36.5206 -80.7294 215° Southwest 370 426 43,000  Level Atlanta Center
12:18PM 36.4369 -80.8000 214° Southwest 370 426 43,000  Level Atlanta Center
12:19PM 36.3511 -80.8681 213° Southwest 370 426 43,000  Level Atlanta Center
12:20PM 36.2653 -80.9408 214° Southwest 370 426 43,000  Level Atlanta Center
12:21PM 36.1733 -81.0164 214° Southwest 370 426 43,000  Level Atlanta Center
12:22PM 36.0853 -81.0867 213° Southwest 370 426 43,000  Level Atlanta Center
12:23PM 36.0014 -81.1564 214° Southwest 370 426 43,000  Level Atlanta Center
12:24PM 35.9156 -81.2261 213° Southwest 370 426 43,000  Level Atlanta Center
12:25PM 35.8317 -81.2956 214° Southwest 363 418 43,000  Level Atlanta Center
12:26PM 35.7456 -81.3725 216° Southwest 374 430 43,000  Level Atlanta Center
12:27PM 35.6553 -81.4447 213° Southwest 388 447 43,000  Level Atlanta Center
12:28PM 35.5669 -81.5111 211° Southwest 390 449 43,000  Level Atlanta Center
12:29PM 35.4786 -81.5778 212° Southwest 384 442 43,000  Level Atlanta Center
12:30PM 35.3944 -81.6464 214° Southwest 379 436 43,000  Level Atlanta Center
12:31PM 35.3061 -81.7153 212° Southwest 379 436 43,000  Level Atlanta Center
12:32PM 35.2197 -81.7836 213° Southwest 379 436 43,000  Level Atlanta Center
12:33PM 35.1203 -81.8144 194° South 379 436 43,000  Level Atlanta Center
12:34PM 35.0203 -81.8322 188° South 364 419 43,000  Level Atlanta Center
12:35PM 34.9183 -81.8475 187° South 370 426 43,000  Level Atlanta Center
12:36PM 34.8164 -81.8656 188° South 370 426 43,000  Level Atlanta Center
12:37PM 34.7292 -81.8803 188° South 370 426 43,000  Level Atlanta Center
12:38PM 34.6269 -81.8956 187° South 370 426 43,000  Level Atlanta Center
12:39PM 34.5272 -81.9108 187° South 370 426 43,000  Level Atlanta Center
12:40PM 34.4253 -81.9283 188° South 370 426 43,000  Level Atlanta Center
12:41PM 34.3275 -81.9436 187° South 370 426 43,000  Level Atlanta Center
12:42PM 34.2233 -81.9586 187° South 370 426 43,000  Level Atlanta Center
12:43PM 34.1214 -81.9761 188° South 370 426 43,000  Level Atlanta Center
12:44PM 34.0214 -81.9911 187° South 370 426 43,000  Level Atlanta Center
12:45PM 33.9194 -82.0086 188° South 370 426 43,000  Level Atlanta Center
12:46PM 33.8194 -82.0233 187° South 370 426 43,000  Level Atlanta Center
12:47PM 33.7153 -82.0408 188° South 370 426 43,000  Level Atlanta Center
12:48PM 33.6133 -82.0583 188° South 370 426 43,000  Level Atlanta Center
12:49PM 33.5072 -82.0756 188° South 370 426 43,000  Level Atlanta Center
12:50PM 33.4072 -82.0953 189° South 370 426 43,000  Level Atlanta Center
12:51PM 33.3031 -82.1100 187° South 370 426 43,000  Level Atlanta Center
12:52PM 33.2011 -82.1272 188° South 370 426 43,000  Level Atlanta Center
12:54PM 32.9953 -82.1619 188° South 368 423 43,000  Level Jacksonville Center
12:55PM 32.9014 -82.1750 187° South 377 434 43,000  Level Jacksonville Center
12:56PM 32.7908 -82.1958 189° South 377 434 43,000  Level Jacksonville Center
12:57PM 32.6969 -82.2089 187° South 372 428 43,000  Level Jacksonville Center
12:58PM 32.5969 -82.2244 187° South 372 428 43,000  Level Jacksonville Center
12:59PM 32.4947 -82.2447 189° South 372 428 43,000  Level Jacksonville Center
01:00PM 32.3864 -82.2628 188° South 367 422 43,000  Level Jacksonville Center
01:01PM 32.2883 -82.2783 188° South 367 422 43,000  Level Jacksonville Center
01:02PM 32.1944 -82.2936 188° South 372 428 43,000  Level Jacksonville Center
01:03PM 32.0817 -82.3114 188° South 366 421 43,000  Level Jacksonville Center
01:04PM 32.0003 -82.3217 186° South 371 427 43,000  Level Jacksonville Center
01:05PM 31.8792 -82.3397 187° South 371 427 43,000  Level Jacksonville Center
01:06PM 31.7769 -82.3550 187° South 371 427 43,000  Level Jacksonville Center
01:07PM 31.6769 -82.3703 187° South 371 427 43,000  Level Jacksonville Center
01:08PM 31.5747 -82.3853 187° South 371 427 43,000  Level Jacksonville Center
01:09PM 31.4683 -82.4031 188° South 371 427 43,000  Level Jacksonville Center
01:10PM 31.3681 -82.4206 188° South 371 427 43,000 -300 Level Jacksonville Center
01:11PM 31.2636 -82.4381 188° South 376 433 42,500 -780 Descending Jacksonville Center
01:12PM 31.1572 -82.4581 189° South 381 438 41,500 -1,080 Descending Jacksonville Center
01:13PM 31.0489 -82.4731 187° South 381 438 40,400 -780 Descending Jacksonville Center
01:14PM 30.9425 -82.4881 187° South 391 450 40,000 -240 Descending Jacksonville Center
01:15PM 30.8358 -82.5056 188° South 391 450 40,000  Level Jacksonville Center
01:16PM 30.7378 -82.5203 187° South 396 456 40,000  Level Jacksonville Center
01:17PM 30.6314 -82.5353 187° South 396 456 40,000 -120 Level Jacksonville Center
01:18PM 30.5269 -82.5356 180° South 384 442 39,800 -480 Descending Jacksonville Center
01:19PM 30.4206 -82.5047 166° South 379 436 39,100 -720 Descending Jacksonville Center
01:20PM 30.3119 -82.5292 191° South 384 442 38,400 -720 Descending Jacksonville Center
01:21PM 30.2056 -82.5656 196° South 390 449 37,700 -780 Descending Jacksonville Center
01:22PM 30.1033 -82.6236 206° Southwest 395 455 36,900 -840 Descending Jacksonville Center
01:23PM 30.0431 -82.7269 236° Southwest 384 442 36,100 -780 Descending Jacksonville Center
01:24PM 30.0139 -82.8661 256° West 403 464 35,400 -720 Descending Jacksonville Center
01:25PM 29.9847 -82.9958 255° West 415 478 34,700 -780 Descending Jacksonville Center
01:26PM 29.9594 -83.1250 257° West 415 478 33,900 -780 Descending Jacksonville Center
01:27PM 29.8839 -83.2208 228° Southwest 406 467 33,200 -720 Descending Jacksonville Center
01:28PM 29.7650 -83.2561 194° South 378 435 32,500 -780 Descending Jacksonville Center
01:29PM 29.6522 -83.2703 186° South 384 442 31,700 -780 Descending Jacksonville Center
01:30PM 29.5372 -83.2842 186° South 407 468 31,000 -360 Descending Jacksonville Center
01:31PM 29.4225 -83.2956 185° South 417 480 31,000  Level Jacksonville Center
01:32PM 29.3097 -83.3094 186° South 417 480 31,000  Level Jacksonville Center
01:33PM 29.1947 -83.3231 186° South 417 480 31,000 -120 Level Jacksonville Center
01:34PM 29.0800 -83.3369 186° South 417 480 30,800 -1,380 Descending Jacksonville Center
01:35PM 28.9631 -83.3483 185° South 422 486 28,300 -2,400 Descending Jacksonville Center
01:36PM 28.8544 -83.3336 173° South 403 464 26,000 -2,100 Descending Jacksonville Center
01:37PM 28.7714 -83.2622 143° Southeast 371 427 24,100 -1,500 Descending Jacksonville Center
01:38PM 28.7153 -83.1672 124° Southeast 364 419 23,000 -1,020 Descending Jacksonville Center
01:39PM 28.6444 -83.0961 139° Southeast 351 404 22,100 -1,440 Descending Jacksonville Center
01:40PM 28.5525 -83.0817 172° South 315 362 20,200 -1,560 Descending Jacksonville Center
01:41PM 28.4628 -83.0767 177° South 320 368 19,000 -600 Descending Jacksonville Center
01:42PM 28.3772 -83.0767 180° South 315 362 19,000 -540 Level Jacksonville Center
01:42PM 28.3167 -83.0667 172° South 313 360 18,100 -2,700 Descending Tampa TRACON
01:44PM 28.2167 -83.0667 180° South 312 359 14,100 -2,640 Descending Tampa TRACON
01:44PM 28.1500 -83.0500 168° South 298 343 12,900 -1,200 Descending Tampa TRACON
01:46PM 28.0500 -83.0167 164° South 272 313 11,700 -900 Descending Tampa TRACON
01:47PM 27.9833 -83.0167 180° South 289 333 11,100 -480 Descending Tampa TRACON
01:48PM 27.9000 -83.0167 180° South 282 325 10,800 -780 Descending Tampa TRACON
01:49PM 27.8167 -83.0167 180° South 266 306 9,600 -1,200 Descending Tampa TRACON
01:50PM 27.7667 -82.9833 149° Southeast 263 303 8,400 -1,380 Descending Tampa TRACON
01:50PM 27.7167 -82.9167 130° Southeast 258 297 7,000 -1,500 Descending Tampa TRACON
01:52PM 27.6667 -82.8667 138° Southeast 250 288 5,400 -960 Descending Tampa TRACON
01:53PM 27.6167 -82.8167 138° Southeast 219 252 5,000 -720 Descending Tampa TRACON
01:54PM 27.5833 -82.7667 127° Southeast 217 250 4,000 -960 Descending Tampa TRACON
01:55PM 27.5333 -82.7167 138° Southeast 214 246 3,100 -660 Descending Tampa TRACON
01:56PM 27.5000 -82.6667 127° Southeast 202 232 2,800 -720 Descending Tampa TRACON
01:57PM 27.4667 -82.6333 138° Southeast 185 213 1,800 -900 Descending Tampa TRACON
01:58PM 27.4333 -82.6000 138° Southeast 131 151 1,100 -660 Descending Tampa TRACON
01:59PM 27.4167 -82.5833 138° Southeast 116 133 500 -600 Descending Tampa TRACON
02:00PM 27.3954 -82.5544 138° Southeast  Level Estimated
02:07PM 27.3954 -82.5544 138° Southeast  Level Estimated
02:08PM 27.3954 -82.5544 138° Southeast  Level Estimated